Time;durP1;ratioP1;P1;durP2;ratioP2;P2;SDS_P1;SDS_P2;PMS_P1;PMS_P2;Temp;Humidity;BMP_temperature;BMP_pressure;BME280_temperature;BME280_humidity;BME280_pressure;Samples;Min_cycle;Max_cycle;Signal;HPM_P1;HPM_P2
2022/10/06 00:01:08;;;;;;;4.43;1.83;;;15.10;99.90;;;;;;4973197;28;20100;-68
2022/10/06 00:03:37;;;;;;;5.75;1.80;;;15.20;99.90;;;;;;4974485;28;20138;-68
2022/10/06 00:06:05;;;;;;;3.28;1.40;;;15.10;99.90;;;;;;4974660;28;20475;-68
2022/10/06 00:08:35;;;;;;;4.82;1.65;;;15.10;99.90;;;;;;4977116;28;20035;-67
2022/10/06 00:11:02;;;;;;;4.60;2.03;;;15.10;99.90;;;;;;4978302;28;20027;-65
2022/10/06 00:13:31;;;;;;;2.72;1.60;;;15.00;99.90;;;;;;4978352;28;20033;-67
2022/10/06 00:15:59;;;;;;;3.88;1.70;;;15.00;99.90;;;;;;4978485;28;20027;-67
2022/10/06 00:18:27;;;;;;;5.95;1.92;;;15.00;99.90;;;;;;4980838;28;20239;-67
2022/10/06 00:20:59;;;;;;;6.13;2.45;;;15.00;99.90;;;;;;4987406;28;20048;-65
2022/10/06 00:23:28;;;;;;;5.85;2.65;;;15.20;99.90;;;;;;4986386;28;20019;-67
2022/10/06 00:25:56;;;;;;;3.67;2.50;;;15.30;99.90;;;;;;4987072;28;20030;-64
2022/10/06 00:28:25;;;;;;;8.82;2.90;;;15.40;99.90;;;;;;4988208;28;20368;-68
2022/10/06 00:30:54;;;;;;;5.35;2.70;;;15.50;99.90;;;;;;4986753;28;20126;-64
2022/10/06 00:33:23;;;;;;;3.90;3.45;;;15.50;99.90;;;;;;4989050;28;20026;-67
2022/10/06 00:35:59;;;;;;;4.57;2.80;;;15.50;99.90;;;;;;4997541;28;20106;-67
2022/10/06 00:38:27;;;;;;;3.72;3.28;;;15.50;99.90;;;;;;4997325;28;20033;-65
2022/10/06 00:40:56;;;;;;;3.58;2.72;;;15.50;99.90;;;;;;4995275;28;20077;-62
2022/10/06 00:43:46;;;;;;;8.30;2.95;;;15.40;99.90;;;;;;4987616;28;20030;-62
2022/10/06 00:46:29;;;;;;;7.07;3.22;;;15.40;99.90;;;;;;4987605;28;20030;-67
2022/10/06 00:49:06;;;;;;;6.22;2.85;;;15.40;99.90;;;;;;4987050;28;20026;-65
2022/10/06 00:51:35;;;;;;;4.03;2.42;;;15.30;99.90;;;;;;4984669;28;20023;-65
2022/10/06 00:54:03;;;;;;;8.20;2.95;;;15.20;99.90;;;;;;4977654;28;20027;-68
2022/10/06 00:56:30;;;;;;;4.07;2.55;;;15.10;99.90;;;;;;4977181;28;20046;-67
2022/10/06 00:58:58;;;;;;;5.10;2.13;;;15.10;99.90;;;;;;4977542;28;20062;-67
2022/10/06 01:01:30;;;;;;;3.92;2.53;;;15.20;99.90;;;;;;4977600;28;20022;-67
2022/10/06 01:04:04;;;;;;;4.78;2.97;;;15.30;99.90;;;;;;4977376;28;20078;-67
2022/10/06 01:06:44;;;;;;;2.85;2.53;;;15.40;99.90;;;;;;4975888;28;20031;-66
2022/10/06 01:09:14;;;;;;;3.05;2.80;;;15.50;99.90;;;;;;4975262;28;20034;-66
2022/10/06 01:11:43;;;;;;;5.82;3.45;;;15.70;99.90;;;;;;4974574;28;20087;-66
2022/10/06 01:14:10;;;;;;;5.10;3.10;;;15.80;99.90;;;;;;4974455;28;20050;-67
2022/10/06 01:16:41;;;;;;;6.03;3.95;;;15.90;99.90;;;;;;4975298;28;20029;-67
2022/10/06 01:19:22;;;;;;;5.13;3.63;;;16.00;99.90;;;;;;4974747;28;20387;-66
2022/10/06 01:21:53;;;;;;;7.78;3.00;;;16.00;99.90;;;;;;4974793;28;20037;-66
2022/10/06 01:24:20;;;;;;;7.60;3.03;;;16.00;99.90;;;;;;4974046;28;20402;-67
2022/10/06 01:26:50;;;;;;;4.30;3.13;;;16.00;99.90;;;;;;4974764;28;20043;-67
2022/10/06 01:29:18;;;;;;;4.95;3.10;;;16.10;99.90;;;;;;4974919;28;20027;-64
2022/10/06 01:31:46;;;;;;;5.68;3.17;;;16.10;99.90;;;;;;4974514;28;20054;-66
2022/10/06 01:34:13;;;;;;;3.42;2.67;;;16.20;99.90;;;;;;4974704;28;20031;-66
2022/10/06 01:36:41;;;;;;;9.48;2.78;;;16.30;99.90;;;;;;4974113;28;20468;-67
2022/10/06 01:39:08;;;;;;;4.53;2.97;;;16.30;99.90;;;;;;4980593;28;20038;-66
2022/10/06 01:41:36;;;;;;;5.00;3.08;;;16.20;99.90;;;;;;4985022;28;20472;-65
2022/10/06 01:44:03;;;;;;;6.15;3.22;;;16.10;99.90;;;;;;4986795;28;20430;-66
2022/10/06 01:46:30;;;;;;;5.57;2.75;;;16.20;99.90;;;;;;4986151;28;20026;-66
2022/10/06 01:48:58;;;;;;;8.52;2.97;;;16.30;99.90;;;;;;4984612;28;20031;-67
2022/10/06 01:51:25;;;;;;;3.83;2.95;;;16.40;99.90;;;;;;4986125;28;20409;-67
2022/10/06 01:53:53;;;;;;;5.60;2.72;;;16.40;99.90;;;;;;4985756;28;20077;-63
2022/10/06 01:56:20;;;;;;;5.80;3.55;;;16.40;99.90;;;;;;4984147;28;20023;-65
2022/10/06 01:58:48;;;;;;;4.82;2.80;;;16.40;99.90;;;;;;4985835;28;20475;-66
2022/10/06 02:01:15;;;;;;;6.03;3.50;;;16.50;99.90;;;;;;4986303;28;20480;-67
2022/10/06 02:03:43;;;;;;;4.05;3.15;;;16.50;99.90;;;;;;4984044;28;20027;-67
2022/10/06 02:06:10;;;;;;;3.55;2.28;;;16.50;99.90;;;;;;4985424;28;20476;-66
2022/10/06 02:08:38;;;;;;;3.47;1.55;;;16.30;99.90;;;;;;4986420;28;20368;-66
2022/10/06 02:11:10;;;;;;;2.60;1.40;;;16.00;99.90;;;;;;4984861;28;20019;-66
2022/10/06 02:13:38;;;;;;;2.97;1.10;;;15.90;99.90;;;;;;4989873;28;20033;-69
2022/10/06 02:16:06;;;;;;;3.85;1.23;;;15.70;99.90;;;;;;4995538;28;20412;-66
2022/10/06 02:18:37;;;;;;;3.03;1.48;;;15.70;99.90;;;;;;4995711;28;20022;-66
2022/10/06 02:21:05;;;;;;;3.05;0.98;;;15.60;99.90;;;;;;4990549;28;20109;-68
2022/10/06 02:23:33;;;;;;;2.08;0.88;;;15.60;99.90;;;;;;4994709;28;20101;-66
2022/10/06 02:26:05;;;;;;;3.58;1.10;;;15.60;99.90;;;;;;4995261;28;20034;-64
2022/10/06 02:28:34;;;;;;;5.32;1.20;;;15.50;99.90;;;;;;4986003;28;20042;-65
2022/10/06 02:31:08;;;;;;;4.25;1.58;;;15.40;99.90;;;;;;4984361;28;20461;-64
2022/10/06 02:33:36;;;;;;;3.25;1.25;;;15.40;99.90;;;;;;4985747;28;20077;-65
2022/10/06 02:36:06;;;;;;;3.35;1.60;;;15.40;99.90;;;;;;4984861;28;20022;-66
2022/10/06 02:38:34;;;;;;;3.80;1.45;;;15.30;99.90;;;;;;4990843;28;20035;-66
2022/10/06 02:41:02;;;;;;;3.65;1.80;;;15.30;99.90;;;;;;4993943;28;20387;-65
2022/10/06 02:43:30;;;;;;;3.25;1.98;;;15.30;99.90;;;;;;4994495;28;20033;-66
2022/10/06 02:46:00;;;;;;;3.80;2.10;;;15.30;99.90;;;;;;4994446;28;20116;-65
2022/10/06 02:48:28;;;;;;;3.33;1.80;;;15.20;99.90;;;;;;4994717;28;20395;-66
2022/10/06 02:51:00;;;;;;;3.33;1.83;;;15.30;99.90;;;;;;4992926;28;20034;-64
2022/10/06 02:53:28;;;;;;;3.45;1.70;;;15.20;99.90;;;;;;4993910;28;20034;-66
2022/10/06 02:56:09;;;;;;;4.18;2.17;;;15.20;99.90;;;;;;4994631;28;20057;-66
2022/10/06 02:58:41;;;;;;;6.25;1.90;;;15.30;99.90;;;;;;4993779;28;20109;-65
2022/10/06 03:01:11;;;;;;;2.70;1.85;;;15.30;99.90;;;;;;4994248;28;20487;-66
2022/10/06 03:03:39;;;;;;;6.10;1.33;;;15.40;99.90;;;;;;4994366;28;20546;-66
2022/10/06 03:06:21;;;;;;;3.67;1.55;;;15.40;99.90;;;;;;4994526;28;20105;-66
2022/10/06 03:08:54;;;;;;;2.58;1.73;;;15.50;99.90;;;;;;4994406;28;20026;-67
2022/10/06 03:11:25;;;;;;;3.72;1.60;;;15.40;99.90;;;;;;4994232;28;20464;-64
2022/10/06 03:13:53;;;;;;;3.10;2.13;;;15.50;99.90;;;;;;4994111;28;20475;-64
2022/10/06 03:16:36;;;;;;;2.42;1.42;;;15.50;99.90;;;;;;4992933;28;20488;-65
2022/10/06 03:19:03;;;;;;;4.40;2.08;;;15.60;99.90;;;;;;4994240;28;20069;-66
2022/10/06 03:21:34;;;;;;;3.00;1.58;;;15.60;99.90;;;;;;4993973;28;20018;-64
2022/10/06 03:24:01;;;;;;;5.88;1.38;;;15.60;99.90;;;;;;4994032;28;20037;-64
2022/10/06 03:26:32;;;;;;;2.78;1.20;;;15.60;99.90;;;;;;4993967;28;20105;-64
2022/10/06 03:29:00;;;;;;;3.47;1.88;;;15.60;99.90;;;;;;4994137;28;20034;-64
2022/10/06 03:31:28;;;;;;;2.60;1.00;;;15.70;99.90;;;;;;4993958;28;20496;-64
2022/10/06 03:33:56;;;;;;;3.58;1.75;;;15.70;99.90;;;;;;4994179;28;20432;-67
2022/10/06 03:36:25;;;;;;;3.65;1.67;;;15.70;99.90;;;;;;4994208;28;20349;-64
2022/10/06 03:38:52;;;;;;;3.72;1.33;;;15.70;99.90;;;;;;4994080;28;20109;-67
2022/10/06 03:41:28;;;;;;;5.40;2.15;;;15.80;99.90;;;;;;4993945;28;20379;-67
2022/10/06 03:43:57;;;;;;;2.28;1.42;;;15.70;99.90;;;;;;4994184;28;20041;-62
2022/10/06 03:46:29;;;;;;;4.53;2.00;;;15.80;99.90;;;;;;4986697;28;20492;-66
2022/10/06 03:48:58;;;;;;;3.58;1.45;;;15.70;99.90;;;;;;4983257;28;20121;-65
2022/10/06 03:51:30;;;;;;;3.40;1.95;;;15.80;99.90;;;;;;4982768;28;20023;-67
2022/10/06 03:53:59;;;;;;;3.47;1.75;;;15.70;99.90;;;;;;4982926;28;20519;-67
2022/10/06 03:56:29;;;;;;;4.40;2.17;;;15.70;99.90;;;;;;4985432;28;20618;-67
2022/10/06 03:59:02;;;;;;;3.47;2.42;;;15.80;99.90;;;;;;4994071;28;20029;-66
2022/10/06 04:01:41;;;;;;;4.10;2.70;;;15.80;99.90;;;;;;4993842;28;20030;-67
2022/10/06 04:04:10;;;;;;;6.15;3.20;;;15.70;99.90;;;;;;4994065;28;20510;-67
2022/10/06 04:06:41;;;;;;;3.60;2.40;;;15.70;99.90;;;;;;4990523;28;20038;-69
2022/10/06 04:09:11;;;;;;;3.97;2.60;;;15.70;99.90;;;;;;4981411;28;20089;-67
2022/10/06 04:11:39;;;;;;;5.60;2.80;;;15.70;99.90;;;;;;4983285;28;20014;-66
2022/10/06 04:14:09;;;;;;;3.63;2.33;;;15.70;99.90;;;;;;4984143;28;20488;-66
2022/10/06 04:16:39;;;;;;;5.10;2.40;;;15.70;99.90;;;;;;4985697;28;20042;-66
2022/10/06 04:19:11;;;;;;;7.40;2.20;;;15.70;99.90;;;;;;4993630;28;20037;-67
2022/10/06 04:21:42;;;;;;;4.82;2.13;;;15.70;99.90;;;;;;4993223;28;20034;-66
2022/10/06 04:24:10;;;;;;;4.78;2.30;;;15.80;99.90;;;;;;4993335;28;20430;-67
2022/10/06 04:26:47;;;;;;;3.13;1.85;;;15.80;99.90;;;;;;4993621;28;20098;-68
2022/10/06 04:29:15;;;;;;;3.33;1.67;;;15.80;99.90;;;;;;4993548;28;20045;-68
2022/10/06 04:31:43;;;;;;;5.13;1.50;;;15.90;99.90;;;;;;4993115;28;20049;-67
2022/10/06 04:34:14;;;;;;;5.65;2.25;;;15.90;99.90;;;;;;4993254;28;20036;-67
2022/10/06 04:36:42;;;;;;;4.57;1.65;;;16.00;99.90;;;;;;4992409;28;20029;-67
2022/10/06 04:39:11;;;;;;;2.55;1.48;;;16.00;99.90;;;;;;4993114;28;20034;-67
2022/10/06 04:41:41;;;;;;;5.93;1.58;;;16.00;99.90;;;;;;4993095;28;20030;-67
2022/10/06 04:44:09;;;;;;;7.13;2.58;;;16.00;99.90;;;;;;4993117;28;20109;-67
2022/10/06 04:46:36;;;;;;;6.82;1.40;;;16.10;99.90;;;;;;4993337;28;20030;-67
2022/10/06 04:49:04;;;;;;;5.18;1.40;;;16.00;99.90;;;;;;4993370;28;20080;-67
2022/10/06 04:51:31;;;;;;;6.05;1.40;;;15.90;99.90;;;;;;4992956;28;20114;-66
2022/10/06 04:53:59;;;;;;;3.97;1.30;;;15.90;99.90;;;;;;4994666;28;20022;-67
2022/10/06 04:56:29;;;;;;;6.40;1.48;;;15.90;99.90;;;;;;4996411;28;20109;-67
2022/10/06 04:58:58;;;;;;;5.80;1.67;;;15.90;99.90;;;;;;4994078;28;20026;-67
2022/10/06 05:01:30;;;;;;;5.10;1.60;;;16.00;99.90;;;;;;4996497;28;20422;-67
2022/10/06 05:04:00;;;;;;;4.50;1.20;;;16.00;99.90;;;;;;4995511;28;20541;-66
2022/10/06 05:06:30;;;;;;;4.35;1.30;;;15.90;99.90;;;;;;4996658;28;20037;-67
2022/10/06 05:09:00;;;;;;;4.32;1.60;;;15.80;99.90;;;;;;4996796;28;20495;-66
2022/10/06 05:11:29;;;;;;;4.00;1.67;;;15.80;99.90;;;;;;4996589;28;20037;-67
2022/10/06 05:13:57;;;;;;;5.90;1.75;;;15.80;99.90;;;;;;4996758;28;20476;-66
2022/10/06 05:16:28;;;;;;;2.67;1.40;;;15.80;99.90;;;;;;4996779;28;20026;-72
2022/10/06 05:18:56;;;;;;;2.72;1.23;;;15.80;99.90;;;;;;4996752;28;20023;-69
2022/10/06 05:21:26;;;;;;;3.53;1.05;;;15.70;99.90;;;;;;4995952;28;20375;-68
2022/10/06 05:23:53;;;;;;;3.92;1.27;;;15.70;99.90;;;;;;4996167;28;20116;-66
2022/10/06 05:26:23;;;;;;;3.65;1.35;;;15.60;99.90;;;;;;4996054;28;20031;-68
2022/10/06 05:28:50;;;;;;;5.35;1.70;;;15.60;99.90;;;;;;4996415;28;20027;-68
2022/10/06 05:31:20;;;;;;;5.13;1.40;;;15.60;99.90;;;;;;4995943;28;20430;-68
2022/10/06 05:33:48;;;;;;;3.15;1.67;;;15.60;99.90;;;;;;4996448;28;20027;-67
2022/10/06 05:36:18;;;;;;;5.85;1.80;;;15.50;99.90;;;;;;4996321;28;20034;-68
2022/10/06 05:38:46;;;;;;;4.55;2.30;;;15.70;99.90;;;;;;4996301;28;20023;-68
2022/10/06 05:41:25;;;;;;;5.15;2.50;;;15.70;99.90;;;;;;4995908;28;20027;-68
2022/10/06 05:43:53;;;;;;;5.60;2.28;;;15.80;99.90;;;;;;4996380;28;20380;-73
2022/10/06 05:46:23;;;;;;;5.35;2.70;;;15.80;99.90;;;;;;4996019;28;20030;-68
2022/10/06 05:48:55;;;;;;;4.63;2.47;;;15.90;99.90;;;;;;4995739;28;20124;-67
2022/10/06 05:51:28;;;;;;;7.47;2.38;;;15.90;99.90;;;;;;4996002;28;20022;-68
2022/10/06 05:53:55;;;;;;;2.47;1.95;;;15.90;99.90;;;;;;4996278;28;20022;-66
2022/10/06 05:56:31;;;;;;;5.85;2.78;;;15.90;99.90;;;;;;4996077;28;20046;-65
2022/10/06 05:58:59;;;;;;;5.50;2.38;;;16.00;99.90;;;;;;4995833;28;20030;-66
2022/10/06 06:01:32;;;;;;;3.40;1.80;;;16.10;99.90;;;;;;4995044;28;20118;-67
2022/10/06 06:04:05;;;;;;;7.13;1.90;;;16.10;99.90;;;;;;4993710;28;20365;-67
2022/10/06 06:06:36;;;;;;;3.53;1.33;;;16.00;99.90;;;;;;4993136;28;20119;-67
2022/10/06 06:09:05;;;;;;;4.53;1.38;;;16.10;99.90;;;;;;4994236;28;20117;-67
2022/10/06 06:11:34;;;;;;;5.82;1.73;;;16.10;99.90;;;;;;4994544;28;20088;-67
2022/10/06 06:14:04;;;;;;;6.63;1.65;;;16.10;99.90;;;;;;4993443;28;20081;-67
2022/10/06 06:16:32;;;;;;;4.40;1.13;;;16.00;99.90;;;;;;4993209;28;20076;-67
2022/10/06 06:19:00;;;;;;;5.90;1.80;;;15.90;99.90;;;;;;4992070;28;20027;-67
2022/10/06 06:21:28;;;;;;;2.03;0.90;;;15.90;99.90;;;;;;4992188;28;20019;-66
2022/10/06 06:23:56;;;;;;;6.38;1.92;;;15.90;99.90;;;;;;4993133;28;20034;-67
2022/10/06 06:26:29;;;;;;;5.22;1.13;;;15.90;99.90;;;;;;4993230;28;20046;-67
2022/10/06 06:29:07;;;;;;;7.55;1.08;;;15.90;99.90;;;;;;4994524;28;20022;-67
2022/10/06 06:31:44;;;;;;;2.95;1.27;;;15.90;99.90;;;;;;4993859;28;20050;-67
2022/10/06 06:34:12;;;;;;;6.07;0.98;;;16.00;99.90;;;;;;4994237;28;20106;-68
2022/10/06 06:36:42;;;;;;;2.65;1.13;;;16.00;99.90;;;;;;4995153;28;20030;-66
2022/10/06 06:39:14;;;;;;;5.43;1.50;;;16.00;99.90;;;;;;4995055;28;20101;-67
2022/10/06 06:41:44;;;;;;;3.88;1.40;;;16.00;99.90;;;;;;4995125;28;20026;-67
2022/10/06 06:44:12;;;;;;;4.20;1.48;;;16.00;99.90;;;;;;4995052;28;20498;-65
2022/10/06 06:46:42;;;;;;;4.05;1.15;;;16.00;99.90;;;;;;4994743;28;20027;-67
2022/10/06 06:49:10;;;;;;;2.95;0.95;;;15.90;99.90;;;;;;4994881;28;20030;-67
2022/10/06 06:51:40;;;;;;;2.80;0.82;;;15.90;99.90;;;;;;4994950;28;20026;-67
2022/10/06 06:54:09;;;;;;;3.05;1.00;;;15.80;99.90;;;;;;4994771;28;20083;-67
2022/10/06 06:56:37;;;;;;;3.25;1.63;;;15.80;99.90;;;;;;4995020;28;20080;-67
